sensor_id;sensor_type;location;lat;lon;timestamp;temperature;humidity
52941;DHT22;62001;53.366;6.636;2023-08-07T00:00:46;16.10;99.90
52941;DHT22;62001;53.366;6.636;2023-08-07T00:03:12;16.20;99.90
52941;DHT22;62001;53.366;6.636;2023-08-07T00:05:45;16.20;99.90
52941;DHT22;62001;53.366;6.636;2023-08-07T00:08:12;16.20;99.90
52941;DHT22;62001;53.366;6.636;2023-08-07T00:10:37;16.20;99.90
52941;DHT22;62001;53.366;6.636;2023-08-07T00:13:04;16.20;99.90
52941;DHT22;62001;53.366;6.636;2023-08-07T00:15:30;16.20;99.90
52941;DHT22;62001;53.366;6.636;2023-08-07T00:17:55;16.20;99.90
52941;DHT22;62001;53.366;6.636;2023-08-07T00:20:21;16.20;99.90
52941;DHT22;62001;53.366;6.636;2023-08-07T00:22:47;16.20;99.90
52941;DHT22;62001;53.366;6.636;2023-08-07T00:25:13;16.20;99.90
52941;DHT22;62001;53.366;6.636;2023-08-07T00:27:39;16.20;99.90
52941;DHT22;62001;53.366;6.636;2023-08-07T00:30:05;16.10;99.90
52941;DHT22;62001;53.366;6.636;2023-08-07T00:32:31;16.10;99.90
52941;DHT22;62001;53.366;6.636;2023-08-07T00:34:57;16.10;99.90
52941;DHT22;62001;53.366;6.636;2023-08-07T00:37:23;16.00;99.90
52941;DHT22;62001;53.366;6.636;2023-08-07T00:39:48;16.00;99.90
52941;DHT22;62001;53.366;6.636;2023-08-07T00:42:14;15.90;99.90
52941;DHT22;62001;53.366;6.636;2023-08-07T00:44:40;15.90;99.90
52941;DHT22;62001;53.366;6.636;2023-08-07T00:47:06;15.90;99.90
52941;DHT22;62001;53.366;6.636;2023-08-07T00:49:33;15.90;99.90
52941;DHT22;62001;53.366;6.636;2023-08-07T00:51:59;15.90;99.90
52941;DHT22;62001;53.366;6.636;2023-08-07T00:54:25;15.90;99.90
52941;DHT22;62001;53.366;6.636;2023-08-07T00:56:51;15.80;99.90
52941;DHT22;62001;53.366;6.636;2023-08-07T00:59:18;15.80;99.90
52941;DHT22;62001;53.366;6.636;2023-08-07T01:01:45;15.80;99.90
52941;DHT22;62001;53.366;6.636;2023-08-07T01:04:11;15.80;99.90
52941;DHT22;62001;53.366;6.636;2023-08-07T01:06:37;15.80;99.90
52941;DHT22;62001;53.366;6.636;2023-08-07T01:09:03;15.70;99.90
52941;DHT22;62001;53.366;6.636;2023-08-07T01:11:43;15.70;99.90
52941;DHT22;62001;53.366;6.636;2023-08-07T01:14:31;15.70;99.90
52941;DHT22;62001;53.366;6.636;2023-08-07T01:17:15;15.70;99.90
52941;DHT22;62001;53.366;6.636;2023-08-07T01:19:41;15.60;99.90
52941;DHT22;62001;53.366;6.636;2023-08-07T01:22:08;15.60;99.90
52941;DHT22;62001;53.366;6.636;2023-08-07T01:24:40;15.50;99.90
52941;DHT22;62001;53.366;6.636;2023-08-07T01:27:35;15.50;99.90
52941;DHT22;62001;53.366;6.636;2023-08-07T01:32:54;15.50;99.90
52941;DHT22;62001;53.366;6.636;2023-08-07T01:35:23;15.40;99.90
52941;DHT22;62001;53.366;6.636;2023-08-07T01:37:55;15.40;99.90
52941;DHT22;62001;53.366;6.636;2023-08-07T01:40:22;15.40;99.90
52941;DHT22;62001;53.366;6.636;2023-08-07T01:42:49;15.40;99.90
52941;DHT22;62001;53.366;6.636;2023-08-07T01:45:25;15.40;99.90
52941;DHT22;62001;53.366;6.636;2023-08-07T01:47:52;15.40;99.90
52941;DHT22;62001;53.366;6.636;2023-08-07T01:50:21;15.40;99.90
52941;DHT22;62001;53.366;6.636;2023-08-07T01:52:47;15.40;99.90
52941;DHT22;62001;53.366;6.636;2023-08-07T01:55:15;15.30;99.90
52941;DHT22;62001;53.366;6.636;2023-08-07T01:57:41;15.30;99.90
52941;DHT22;62001;53.366;6.636;2023-08-07T02:00:07;15.30;99.90
52941;DHT22;62001;53.366;6.636;2023-08-07T02:02:34;15.30;99.90
52941;DHT22;62001;53.366;6.636;2023-08-07T02:05:00;15.30;99.90
52941;DHT22;62001;53.366;6.636;2023-08-07T02:07:26;15.30;99.90
52941;DHT22;62001;53.366;6.636;2023-08-07T02:09:52;15.30;99.90
52941;DHT22;62001;53.366;6.636;2023-08-07T02:12:17;15.30;99.90
52941;DHT22;62001;53.366;6.636;2023-08-07T02:14:43;15.30;99.90
52941;DHT22;62001;53.366;6.636;2023-08-07T02:17:09;15.30;99.90
52941;DHT22;62001;53.366;6.636;2023-08-07T02:19:35;15.40;99.90
52941;DHT22;62001;53.366;6.636;2023-08-07T02:22:02;15.40;99.90
52941;DHT22;62001;53.366;6.636;2023-08-07T02:24:28;15.40;99.90
52941;DHT22;62001;53.366;6.636;2023-08-07T02:26:53;15.50;99.90
52941;DHT22;62001;53.366;6.636;2023-08-07T02:29:19;15.60;99.90
52941;DHT22;62001;53.366;6.636;2023-08-07T02:31:45;15.60;99.90
52941;DHT22;62001;53.366;6.636;2023-08-07T02:34:11;15.70;99.90
52941;DHT22;62001;53.366;6.636;2023-08-07T02:36:37;15.70;99.90
52941;DHT22;62001;53.366;6.636;2023-08-07T02:39:04;15.70;99.90
52941;DHT22;62001;53.366;6.636;2023-08-07T02:41:29;15.70;99.90
52941;DHT22;62001;53.366;6.636;2023-08-07T02:43:57;15.60;99.90
52941;DHT22;62001;53.366;6.636;2023-08-07T02:46:23;15.60;99.90
52941;DHT22;62001;53.366;6.636;2023-08-07T02:48:49;15.50;99.90
52941;DHT22;62001;53.366;6.636;2023-08-07T02:51:14;15.50;99.90
52941;DHT22;62001;53.366;6.636;2023-08-07T02:53:40;15.50;99.90
52941;DHT22;62001;53.366;6.636;2023-08-07T02:56:06;15.50;99.90
52941;DHT22;62001;53.366;6.636;2023-08-07T02:58:32;15.50;99.90
52941;DHT22;62001;53.366;6.636;2023-08-07T03:01:03;15.50;99.90
52941;DHT22;62001;53.366;6.636;2023-08-07T03:03:31;15.40;99.90
52941;DHT22;62001;53.366;6.636;2023-08-07T03:05:57;15.40;99.90
52941;DHT22;62001;53.366;6.636;2023-08-07T03:08:23;15.50;99.90
52941;DHT22;62001;53.366;6.636;2023-08-07T03:10:53;15.50;99.90
52941;DHT22;62001;53.366;6.636;2023-08-07T03:13:21;15.50;99.90
52941;DHT22;62001;53.366;6.636;2023-08-07T03:15:47;15.60;99.90
52941;DHT22;62001;53.366;6.636;2023-08-07T03:18:16;15.60;99.90
52941;DHT22;62001;53.366;6.636;2023-08-07T03:20:42;15.70;99.90
52941;DHT22;62001;53.366;6.636;2023-08-07T03:23:09;15.70;99.90
52941;DHT22;62001;53.366;6.636;2023-08-07T03:25:35;15.70;99.90
52941;DHT22;62001;53.366;6.636;2023-08-07T03:28:01;15.70;99.90
52941;DHT22;62001;53.366;6.636;2023-08-07T03:30:27;15.70;99.90
52941;DHT22;62001;53.366;6.636;2023-08-07T03:32:53;15.70;99.90
52941;DHT22;62001;53.366;6.636;2023-08-07T03:35:19;15.60;99.90
52941;DHT22;62001;53.366;6.636;2023-08-07T03:37:45;15.60;99.90
52941;DHT22;62001;53.366;6.636;2023-08-07T03:40:11;15.60;99.90
52941;DHT22;62001;53.366;6.636;2023-08-07T03:42:37;15.70;99.90
52941;DHT22;62001;53.366;6.636;2023-08-07T03:45:03;15.60;99.90
52941;DHT22;62001;53.366;6.636;2023-08-07T03:47:29;15.40;99.90
52941;DHT22;62001;53.366;6.636;2023-08-07T03:49:54;15.30;99.90
52941;DHT22;62001;53.366;6.636;2023-08-07T03:52:20;15.10;99.90
52941;DHT22;62001;53.366;6.636;2023-08-07T03:54:46;15.10;99.90
52941;DHT22;62001;53.366;6.636;2023-08-07T03:57:12;15.10;99.90
52941;DHT22;62001;53.366;6.636;2023-08-07T03:59:38;15.00;99.90
52941;DHT22;62001;53.366;6.636;2023-08-07T04:02:04;15.00;99.90
52941;DHT22;62001;53.366;6.636;2023-08-07T04:04:30;15.00;99.90
52941;DHT22;62001;53.366;6.636;2023-08-07T04:06:55;15.00;99.90
52941;DHT22;62001;53.366;6.636;2023-08-07T04:09:21;15.00;99.90
52941;DHT22;62001;53.366;6.636;2023-08-07T04:11:47;15.00;99.90
52941;DHT22;62001;53.366;6.636;2023-08-07T04:14:13;15.10;99.90
52941;DHT22;62001;53.366;6.636;2023-08-07T04:16:39;15.00;99.90
52941;DHT22;62001;53.366;6.636;2023-08-07T04:19:05;15.10;99.90
52941;DHT22;62001;53.366;6.636;2023-08-07T04:21:33;15.10;99.90
52941;DHT22;62001;53.366;6.636;2023-08-07T04:23:59;15.00;99.90
52941;DHT22;62001;53.366;6.636;2023-08-07T04:26:26;15.10;99.90
52941;DHT22;62001;53.366;6.636;2023-08-07T04:28:52;15.00;99.90
52941;DHT22;62001;53.366;6.636;2023-08-07T04:31:18;15.00;99.90
52941;DHT22;62001;53.366;6.636;2023-08-07T04:33:44;15.00;99.90
52941;DHT22;62001;53.366;6.636;2023-08-07T04:36:10;15.00;99.90
52941;DHT22;62001;53.366;6.636;2023-08-07T04:38:35;15.00;99.90
52941;DHT22;62001;53.366;6.636;2023-08-07T04:41:01;15.00;99.90
52941;DHT22;62001;53.366;6.636;2023-08-07T04:43:29;15.00;99.90
52941;DHT22;62001;53.366;6.636;2023-08-07T04:45:54;15.00;99.90
52941;DHT22;62001;53.366;6.636;2023-08-07T04:48:20;15.00;99.90
52941;DHT22;62001;53.366;6.636;2023-08-07T04:50:48;15.10;99.90
52941;DHT22;62001;53.366;6.636;2023-08-07T04:53:13;15.10;99.90
52941;DHT22;62001;53.366;6.636;2023-08-07T04:55:40;15.10;99.90
52941;DHT22;62001;53.366;6.636;2023-08-07T04:58:05;15.20;99.90
52941;DHT22;62001;53.366;6.636;2023-08-07T05:00:31;15.20;99.90
52941;DHT22;62001;53.366;6.636;2023-08-07T05:02:57;15.20;99.90
52941;DHT22;62001;53.366;6.636;2023-08-07T05:05:23;15.20;99.90
52941;DHT22;62001;53.366;6.636;2023-08-07T05:07:49;15.20;99.90
52941;DHT22;62001;53.366;6.636;2023-08-07T05:10:15;15.30;99.90
52941;DHT22;62001;53.366;6.636;2023-08-07T05:12:41;15.30;99.90
52941;DHT22;62001;53.366;6.636;2023-08-07T05:15:07;15.30;99.90
52941;DHT22;62001;53.366;6.636;2023-08-07T05:17:33;15.30;99.90
52941;DHT22;62001;53.366;6.636;2023-08-07T05:19:59;15.30;99.90
52941;DHT22;62001;53.366;6.636;2023-08-07T05:22:25;15.30;99.90
52941;DHT22;62001;53.366;6.636;2023-08-07T05:24:50;15.30;99.90
52941;DHT22;62001;53.366;6.636;2023-08-07T05:27:16;15.30;99.90
52941;DHT22;62001;53.366;6.636;2023-08-07T05:29:42;15.20;99.90
52941;DHT22;62001;53.366;6.636;2023-08-07T05:32:15;15.20;99.90
52941;DHT22;62001;53.366;6.636;2023-08-07T05:34:41;15.20;99.90
52941;DHT22;62001;53.366;6.636;2023-08-07T05:37:07;15.20;99.90
52941;DHT22;62001;53.366;6.636;2023-08-07T05:39:35;15.30;99.90
52941;DHT22;62001;53.366;6.636;2023-08-07T05:42:01;15.40;99.90
52941;DHT22;62001;53.366;6.636;2023-08-07T05:44:27;15.70;99.90
52941;DHT22;62001;53.366;6.636;2023-08-07T05:46:53;15.80;99.90
52941;DHT22;62001;53.366;6.636;2023-08-07T05:49:20;15.70;99.90
52941;DHT22;62001;53.366;6.636;2023-08-07T05:51:46;15.60;99.90
52941;DHT22;62001;53.366;6.636;2023-08-07T05:54:11;15.40;99.90
52941;DHT22;62001;53.366;6.636;2023-08-07T05:56:38;15.20;99.90
52941;DHT22;62001;53.366;6.636;2023-08-07T05:59:04;15.00;99.90
52941;DHT22;62001;53.366;6.636;2023-08-07T06:01:30;15.00;99.90
52941;DHT22;62001;53.366;6.636;2023-08-07T06:03:59;14.90;99.90
52941;DHT22;62001;53.366;6.636;2023-08-07T06:06:25;14.90;99.90
52941;DHT22;62001;53.366;6.636;2023-08-07T06:08:54;15.10;99.90
52941;DHT22;62001;53.366;6.636;2023-08-07T06:11:20;15.20;99.90
52941;DHT22;62001;53.366;6.636;2023-08-07T06:13:45;15.80;99.90
52941;DHT22;62001;53.366;6.636;2023-08-07T06:16:11;16.30;99.90
52941;DHT22;62001;53.366;6.636;2023-08-07T06:18:38;16.50;99.90
52941;DHT22;62001;53.366;6.636;2023-08-07T06:21:04;16.60;99.90
52941;DHT22;62001;53.366;6.636;2023-08-07T06:23:33;16.60;99.90
52941;DHT22;62001;53.366;6.636;2023-08-07T06:25:58;16.50;99.90
52941;DHT22;62001;53.366;6.636;2023-08-07T06:28:24;16.40;99.90
52941;DHT22;62001;53.366;6.636;2023-08-07T06:30:50;16.60;99.90
52941;DHT22;62001;53.366;6.636;2023-08-07T06:33:16;16.50;99.90
52941;DHT22;62001;53.366;6.636;2023-08-07T06:35:42;16.30;99.90
52941;DHT22;62001;53.366;6.636;2023-08-07T06:38:08;16.10;99.90
52941;DHT22;62001;53.366;6.636;2023-08-07T06:40:37;16.10;99.90
52941;DHT22;62001;53.366;6.636;2023-08-07T06:43:03;16.20;99.90
52941;DHT22;62001;53.366;6.636;2023-08-07T06:45:29;16.20;99.90
52941;DHT22;62001;53.366;6.636;2023-08-07T06:47:55;16.20;99.90
52941;DHT22;62001;53.366;6.636;2023-08-07T06:50:21;16.20;99.90
52941;DHT22;62001;53.366;6.636;2023-08-07T06:52:47;16.10;99.90
52941;DHT22;62001;53.366;6.636;2023-08-07T06:55:13;16.00;99.90
52941;DHT22;62001;53.366;6.636;2023-08-07T06:57:39;15.90;99.90
52941;DHT22;62001;53.366;6.636;2023-08-07T07:00:06;15.90;99.90
52941;DHT22;62001;53.366;6.636;2023-08-07T07:02:32;15.90;99.90
52941;DHT22;62001;53.366;6.636;2023-08-07T07:04:57;15.90;99.90
52941;DHT22;62001;53.366;6.636;2023-08-07T07:07:23;15.90;99.90
52941;DHT22;62001;53.366;6.636;2023-08-07T07:09:49;16.00;99.90
52941;DHT22;62001;53.366;6.636;2023-08-07T07:12:15;16.00;99.90
52941;DHT22;62001;53.366;6.636;2023-08-07T07:14:41;16.10;99.90
52941;DHT22;62001;53.366;6.636;2023-08-07T07:17:07;16.30;99.90
52941;DHT22;62001;53.366;6.636;2023-08-07T07:19:33;16.40;99.90
52941;DHT22;62001;53.366;6.636;2023-08-07T07:21:59;16.40;99.90
52941;DHT22;62001;53.366;6.636;2023-08-07T07:24:25;16.70;99.90
52941;DHT22;62001;53.366;6.636;2023-08-07T07:26:51;16.90;99.90
52941;DHT22;62001;53.366;6.636;2023-08-07T07:29:17;17.10;99.90
52941;DHT22;62001;53.366;6.636;2023-08-07T07:31:44;17.20;99.90
52941;DHT22;62001;53.366;6.636;2023-08-07T07:34:10;17.20;99.90
52941;DHT22;62001;53.366;6.636;2023-08-07T07:36:35;17.20;99.90
52941;DHT22;62001;53.366;6.636;2023-08-07T07:39:01;17.10;99.90
52941;DHT22;62001;53.366;6.636;2023-08-07T07:41:27;17.00;99.90
52941;DHT22;62001;53.366;6.636;2023-08-07T07:43:53;17.10;99.90
52941;DHT22;62001;53.366;6.636;2023-08-07T07:46:19;17.10;99.90
52941;DHT22;62001;53.366;6.636;2023-08-07T07:48:45;17.00;99.90
52941;DHT22;62001;53.366;6.636;2023-08-07T07:51:11;17.00;99.90
52941;DHT22;62001;53.366;6.636;2023-08-07T07:53:37;16.90;99.90
52941;DHT22;62001;53.366;6.636;2023-08-07T07:56:03;16.90;99.90
52941;DHT22;62001;53.366;6.636;2023-08-07T07:58:28;16.70;99.90
52941;DHT22;62001;53.366;6.636;2023-08-07T08:00:54;16.60;99.90
52941;DHT22;62001;53.366;6.636;2023-08-07T08:03:21;16.50;99.90
52941;DHT22;62001;53.366;6.636;2023-08-07T08:05:52;16.50;99.90
52941;DHT22;62001;53.366;6.636;2023-08-07T08:08:18;16.50;99.90
52941;DHT22;62001;53.366;6.636;2023-08-07T08:10:45;16.70;99.90
52941;DHT22;62001;53.366;6.636;2023-08-07T08:13:13;16.80;99.90
52941;DHT22;62001;53.366;6.636;2023-08-07T08:15:38;17.20;99.90
52941;DHT22;62001;53.366;6.636;2023-08-07T08:18:04;17.60;99.90
52941;DHT22;62001;53.366;6.636;2023-08-07T08:20:30;17.90;99.90
52941;DHT22;62001;53.366;6.636;2023-08-07T08:22:57;18.10;99.90
52941;DHT22;62001;53.366;6.636;2023-08-07T08:25:22;18.30;99.90
52941;DHT22;62001;53.366;6.636;2023-08-07T08:27:48;18.30;99.90
52941;DHT22;62001;53.366;6.636;2023-08-07T08:30:16;18.40;99.90
52941;DHT22;62001;53.366;6.636;2023-08-07T08:32:43;18.40;99.90
52941;DHT22;62001;53.366;6.636;2023-08-07T08:35:09;18.50;99.90
52941;DHT22;62001;53.366;6.636;2023-08-07T08:37:35;18.40;99.90
52941;DHT22;62001;53.366;6.636;2023-08-07T08:40:01;18.10;99.90
52941;DHT22;62001;53.366;6.636;2023-08-07T08:42:27;17.90;99.90
52941;DHT22;62001;53.366;6.636;2023-08-07T08:44:55;17.80;99.90
52941;DHT22;62001;53.366;6.636;2023-08-07T08:47:22;17.60;99.90
52941;DHT22;62001;53.366;6.636;2023-08-07T08:49:51;17.50;99.90
52941;DHT22;62001;53.366;6.636;2023-08-07T08:52:21;17.60;99.90
52941;DHT22;62001;53.366;6.636;2023-08-07T08:54:47;17.90;99.90
52941;DHT22;62001;53.366;6.636;2023-08-07T08:57:13;17.90;99.90
52941;DHT22;62001;53.366;6.636;2023-08-07T08:59:41;17.50;99.90
52941;DHT22;62001;53.366;6.636;2023-08-07T09:02:07;17.20;99.90
52941;DHT22;62001;53.366;6.636;2023-08-07T09:04:33;16.80;99.90
52941;DHT22;62001;53.366;6.636;2023-08-07T09:07:01;16.50;99.90
52941;DHT22;62001;53.366;6.636;2023-08-07T09:09:27;16.20;99.90
52941;DHT22;62001;53.366;6.636;2023-08-07T09:11:54;16.00;99.90
52941;DHT22;62001;53.366;6.636;2023-08-07T09:14:26;15.70;99.90
52941;DHT22;62001;53.366;6.636;2023-08-07T09:16:52;15.70;99.90
52941;DHT22;62001;53.366;6.636;2023-08-07T09:19:19;15.60;99.90
52941;DHT22;62001;53.366;6.636;2023-08-07T09:21:45;15.70;99.90
52941;DHT22;62001;53.366;6.636;2023-08-07T09:24:11;16.00;99.90
52941;DHT22;62001;53.366;6.636;2023-08-07T09:26:38;16.40;99.90
52941;DHT22;62001;53.366;6.636;2023-08-07T09:29:07;16.90;99.90
52941;DHT22;62001;53.366;6.636;2023-08-07T09:31:36;17.30;99.90
52941;DHT22;62001;53.366;6.636;2023-08-07T09:34:04;17.50;99.90
52941;DHT22;62001;53.366;6.636;2023-08-07T09:36:34;17.80;99.90
52941;DHT22;62001;53.366;6.636;2023-08-07T09:39:03;18.10;99.90
52941;DHT22;62001;53.366;6.636;2023-08-07T09:41:30;18.40;99.90
52941;DHT22;62001;53.366;6.636;2023-08-07T09:43:57;18.70;99.90
52941;DHT22;62001;53.366;6.636;2023-08-07T09:46:28;18.70;99.90
52941;DHT22;62001;53.366;6.636;2023-08-07T09:48:58;18.50;99.90
52941;DHT22;62001;53.366;6.636;2023-08-07T09:51:24;18.20;99.90
52941;DHT22;62001;53.366;6.636;2023-08-07T09:53:50;17.90;99.90
52941;DHT22;62001;53.366;6.636;2023-08-07T09:56:16;17.60;99.90
52941;DHT22;62001;53.366;6.636;2023-08-07T09:58:47;17.30;99.90
52941;DHT22;62001;53.366;6.636;2023-08-07T10:01:15;17.00;99.90
52941;DHT22;62001;53.366;6.636;2023-08-07T10:03:42;16.80;99.90
52941;DHT22;62001;53.366;6.636;2023-08-07T10:06:08;16.70;99.90
52941;DHT22;62001;53.366;6.636;2023-08-07T10:08:35;16.80;99.90
52941;DHT22;62001;53.366;6.636;2023-08-07T10:11:03;16.80;99.90
52941;DHT22;62001;53.366;6.636;2023-08-07T10:13:30;16.80;99.90
52941;DHT22;62001;53.366;6.636;2023-08-07T10:15:58;16.80;99.90
52941;DHT22;62001;53.366;6.636;2023-08-07T10:18:24;16.70;99.90
52941;DHT22;62001;53.366;6.636;2023-08-07T10:20:50;16.60;99.90
52941;DHT22;62001;53.366;6.636;2023-08-07T10:23:17;16.40;99.90
52941;DHT22;62001;53.366;6.636;2023-08-07T10:25:45;16.40;99.90
52941;DHT22;62001;53.366;6.636;2023-08-07T10:28:16;16.40;99.90
52941;DHT22;62001;53.366;6.636;2023-08-07T10:30:44;16.40;99.90
52941;DHT22;62001;53.366;6.636;2023-08-07T10:33:12;16.40;99.90
52941;DHT22;62001;53.366;6.636;2023-08-07T10:35:45;16.30;99.90
52941;DHT22;62001;53.366;6.636;2023-08-07T10:38:12;16.40;99.90
52941;DHT22;62001;53.366;6.636;2023-08-07T10:41:12;16.40;99.90
52941;DHT22;62001;53.366;6.636;2023-08-07T10:43:42;16.50;99.90
52941;DHT22;62001;53.366;6.636;2023-08-07T10:46:20;16.50;99.90
52941;DHT22;62001;53.366;6.636;2023-08-07T10:48:54;16.60;99.90
52941;DHT22;62001;53.366;6.636;2023-08-07T10:51:20;17.00;99.90
52941;DHT22;62001;53.366;6.636;2023-08-07T10:53:49;17.40;99.90
52941;DHT22;62001;53.366;6.636;2023-08-07T10:56:18;17.80;99.90
52941;DHT22;62001;53.366;6.636;2023-08-07T10:58:55;18.00;99.90
52941;DHT22;62001;53.366;6.636;2023-08-07T11:01:41;18.20;99.90
52941;DHT22;62001;53.366;6.636;2023-08-07T11:04:12;18.30;99.90
52941;DHT22;62001;53.366;6.636;2023-08-07T11:06:41;18.40;99.90
52941;DHT22;62001;53.366;6.636;2023-08-07T11:09:08;18.50;99.90
52941;DHT22;62001;53.366;6.636;2023-08-07T11:14:16;18.60;99.90
52941;DHT22;62001;53.366;6.636;2023-08-07T11:16:42;18.40;99.90
52941;DHT22;62001;53.366;6.636;2023-08-07T11:19:09;18.20;99.90
52941;DHT22;62001;53.366;6.636;2023-08-07T11:21:36;18.00;99.90
52941;DHT22;62001;53.366;6.636;2023-08-07T11:24:02;17.80;99.90
52941;DHT22;62001;53.366;6.636;2023-08-07T11:26:29;17.80;99.90
52941;DHT22;62001;53.366;6.636;2023-08-07T11:28:55;17.70;99.90
52941;DHT22;62001;53.366;6.636;2023-08-07T11:31:22;17.70;99.90
52941;DHT22;62001;53.366;6.636;2023-08-07T11:33:57;17.80;99.90
52941;DHT22;62001;53.366;6.636;2023-08-07T11:36:28;17.90;99.90
52941;DHT22;62001;53.366;6.636;2023-08-07T11:38:54;18.00;99.90
52941;DHT22;62001;53.366;6.636;2023-08-07T11:41:20;18.10;99.90
52941;DHT22;62001;53.366;6.636;2023-08-07T11:43:46;18.30;99.90
52941;DHT22;62001;53.366;6.636;2023-08-07T11:46:15;18.50;99.90
52941;DHT22;62001;53.366;6.636;2023-08-07T11:48:44;18.50;99.90
52941;DHT22;62001;53.366;6.636;2023-08-07T11:51:10;18.50;99.90
52941;DHT22;62001;53.366;6.636;2023-08-07T11:53:37;18.50;99.90
52941;DHT22;62001;53.366;6.636;2023-08-07T11:56:08;18.60;99.90
52941;DHT22;62001;53.366;6.636;2023-08-07T11:58:47;18.70;99.90
52941;DHT22;62001;53.366;6.636;2023-08-07T12:01:18;18.70;99.90
52941;DHT22;62001;53.366;6.636;2023-08-07T12:03:56;18.70;99.90
52941;DHT22;62001;53.366;6.636;2023-08-07T12:06:23;18.70;99.90
52941;DHT22;62001;53.366;6.636;2023-08-07T12:08:53;18.60;99.90
52941;DHT22;62001;53.366;6.636;2023-08-07T12:11:19;18.50;99.90
52941;DHT22;62001;53.366;6.636;2023-08-07T12:13:47;18.40;99.90
52941;DHT22;62001;53.366;6.636;2023-08-07T12:16:14;18.30;99.90
52941;DHT22;62001;53.366;6.636;2023-08-07T12:18:51;18.20;99.90
52941;DHT22;62001;53.366;6.636;2023-08-07T12:21:21;18.10;99.90
52941;DHT22;62001;53.366;6.636;2023-08-07T12:23:50;18.20;99.90
52941;DHT22;62001;53.366;6.636;2023-08-07T12:26:17;18.40;99.90
52941;DHT22;62001;53.366;6.636;2023-08-07T12:28:43;18.60;99.90
52941;DHT22;62001;53.366;6.636;2023-08-07T12:31:10;18.70;99.90
52941;DHT22;62001;53.366;6.636;2023-08-07T12:33:36;18.70;99.90
52941;DHT22;62001;53.366;6.636;2023-08-07T12:36:02;18.70;99.90
52941;DHT22;62001;53.366;6.636;2023-08-07T12:38:28;18.80;99.90
52941;DHT22;62001;53.366;6.636;2023-08-07T12:40:54;18.90;99.90
52941;DHT22;62001;53.366;6.636;2023-08-07T12:43:21;19.20;99.90
52941;DHT22;62001;53.366;6.636;2023-08-07T12:45:47;19.40;99.90
52941;DHT22;62001;53.366;6.636;2023-08-07T12:48:13;19.40;99.90
52941;DHT22;62001;53.366;6.636;2023-08-07T12:50:39;19.20;99.90
52941;DHT22;62001;53.366;6.636;2023-08-07T12:53:08;19.00;99.90
52941;DHT22;62001;53.366;6.636;2023-08-07T12:55:34;18.70;99.90
52941;DHT22;62001;53.366;6.636;2023-08-07T12:58:00;18.50;99.90
52941;DHT22;62001;53.366;6.636;2023-08-07T13:00:26;18.40;99.90
52941;DHT22;62001;53.366;6.636;2023-08-07T13:02:52;18.50;99.90
52941;DHT22;62001;53.366;6.636;2023-08-07T13:05:20;18.70;99.90
52941;DHT22;62001;53.366;6.636;2023-08-07T13:07:46;18.90;99.90
52941;DHT22;62001;53.366;6.636;2023-08-07T13:10:14;19.00;99.90
52941;DHT22;62001;53.366;6.636;2023-08-07T13:12:41;19.00;99.90
52941;DHT22;62001;53.366;6.636;2023-08-07T13:15:09;18.80;99.90
52941;DHT22;62001;53.366;6.636;2023-08-07T13:17:36;18.70;99.90
52941;DHT22;62001;53.366;6.636;2023-08-07T13:20:03;18.40;99.90
52941;DHT22;62001;53.366;6.636;2023-08-07T13:22:39;18.20;99.90
52941;DHT22;62001;53.366;6.636;2023-08-07T13:25:06;18.00;99.90
52941;DHT22;62001;53.366;6.636;2023-08-07T13:27:34;17.90;99.90
52941;DHT22;62001;53.366;6.636;2023-08-07T13:30:01;17.90;99.90
52941;DHT22;62001;53.366;6.636;2023-08-07T13:32:27;17.90;99.90
52941;DHT22;62001;53.366;6.636;2023-08-07T13:34:53;17.90;99.90
52941;DHT22;62001;53.366;6.636;2023-08-07T13:37:19;17.80;99.90
52941;DHT22;62001;53.366;6.636;2023-08-07T13:39:45;17.90;99.90
52941;DHT22;62001;53.366;6.636;2023-08-07T13:42:13;17.90;99.90
52941;DHT22;62001;53.366;6.636;2023-08-07T13:44:39;17.90;99.90
52941;DHT22;62001;53.366;6.636;2023-08-07T13:47:05;17.80;99.90
52941;DHT22;62001;53.366;6.636;2023-08-07T13:49:32;17.60;99.90
52941;DHT22;62001;53.366;6.636;2023-08-07T13:51:58;17.50;99.90
52941;DHT22;62001;53.366;6.636;2023-08-07T13:54:24;17.50;99.90
52941;DHT22;62001;53.366;6.636;2023-08-07T13:56:50;17.60;99.90
52941;DHT22;62001;53.366;6.636;2023-08-07T13:59:16;17.60;99.90
52941;DHT22;62001;53.366;6.636;2023-08-07T14:01:42;17.60;99.90
52941;DHT22;62001;53.366;6.636;2023-08-07T14:04:08;17.50;99.90
52941;DHT22;62001;53.366;6.636;2023-08-07T14:06:33;17.50;99.90
52941;DHT22;62001;53.366;6.636;2023-08-07T14:08:59;17.60;99.90
52941;DHT22;62001;53.366;6.636;2023-08-07T14:11:25;17.70;99.90
52941;DHT22;62001;53.366;6.636;2023-08-07T14:13:56;17.80;99.90
52941;DHT22;62001;53.366;6.636;2023-08-07T14:16:23;18.00;99.90
52941;DHT22;62001;53.366;6.636;2023-08-07T14:18:49;18.00;99.90
52941;DHT22;62001;53.366;6.636;2023-08-07T14:21:15;18.00;99.90
52941;DHT22;62001;53.366;6.636;2023-08-07T14:23:41;18.00;99.90
52941;DHT22;62001;53.366;6.636;2023-08-07T14:26:08;17.90;99.90
52941;DHT22;62001;53.366;6.636;2023-08-07T14:28:34;17.80;99.90
52941;DHT22;62001;53.366;6.636;2023-08-07T14:30:59;17.70;99.90
52941;DHT22;62001;53.366;6.636;2023-08-07T14:33:27;17.70;99.90
52941;DHT22;62001;53.366;6.636;2023-08-07T14:35:53;17.80;99.90
52941;DHT22;62001;53.366;6.636;2023-08-07T14:38:19;17.80;99.90
52941;DHT22;62001;53.366;6.636;2023-08-07T14:40:45;17.80;99.90
52941;DHT22;62001;53.366;6.636;2023-08-07T14:43:11;17.70;99.90
52941;DHT22;62001;53.366;6.636;2023-08-07T14:45:37;17.70;99.90
52941;DHT22;62001;53.366;6.636;2023-08-07T14:48:03;17.70;99.90
52941;DHT22;62001;53.366;6.636;2023-08-07T14:50:29;17.80;99.90
52941;DHT22;62001;53.366;6.636;2023-08-07T14:52:55;17.80;99.90
52941;DHT22;62001;53.366;6.636;2023-08-07T14:55:21;17.70;99.90
52941;DHT22;62001;53.366;6.636;2023-08-07T14:57:47;17.50;99.90
52941;DHT22;62001;53.366;6.636;2023-08-07T15:00:13;17.60;99.90
52941;DHT22;62001;53.366;6.636;2023-08-07T15:02:39;17.80;99.90
52941;DHT22;62001;53.366;6.636;2023-08-07T15:05:06;18.10;99.90
52941;DHT22;62001;53.366;6.636;2023-08-07T15:07:31;18.20;99.90
52941;DHT22;62001;53.366;6.636;2023-08-07T15:09:57;18.30;99.90
52941;DHT22;62001;53.366;6.636;2023-08-07T15:12:24;18.40;99.90
52941;DHT22;62001;53.366;6.636;2023-08-07T15:14:50;18.60;99.90
52941;DHT22;62001;53.366;6.636;2023-08-07T15:17:16;18.70;99.90
52941;DHT22;62001;53.366;6.636;2023-08-07T15:19:42;18.80;99.90
52941;DHT22;62001;53.366;6.636;2023-08-07T15:22:08;18.70;99.90
52941;DHT22;62001;53.366;6.636;2023-08-07T15:24:34;18.50;99.90
52941;DHT22;62001;53.366;6.636;2023-08-07T15:27:00;18.30;99.90
52941;DHT22;62001;53.366;6.636;2023-08-07T15:29:26;18.40;99.90
52941;DHT22;62001;53.366;6.636;2023-08-07T15:31:52;18.40;99.90
52941;DHT22;62001;53.366;6.636;2023-08-07T15:34:18;18.40;99.90